createdAt,value
2019-05-02T00:02:37.812Z,99541.84
2019-05-02T00:07:43.103Z,99536.28
2019-05-02T00:12:47.035Z,99546.78
2019-05-02T00:17:50.487Z,99541.84
2019-05-02T00:22:53.966Z,99531.33
2019-05-02T00:27:57.586Z,99529.78
2019-05-02T00:33:01.046Z,99531.74
2019-05-02T00:38:04.505Z,99524.22
2019-05-02T00:43:08.092Z,99531.16
2019-05-02T00:48:19.326Z,99528.97
2019-05-02T00:53:21.305Z,99524.02
2019-05-02T00:58:27.269Z,99515.69
2019-05-02T01:03:32.097Z,99507.20
2019-05-02T01:08:36.900Z,99510.12
2019-05-02T01:13:40.461Z,99507.81
2019-05-02T01:18:44.585Z,99507.20
2019-05-02T01:23:48.040Z,99509.20
2019-05-02T01:29:05.098Z,99504.27
2019-05-02T01:34:21.835Z,99500.09
2019-05-02T01:39:25.729Z,99500.09
2019-05-02T01:44:31.035Z,99494.53
2019-05-02T01:49:34.368Z,99497.92
2019-05-02T01:54:40.647Z,99486.03
2019-05-02T01:59:42.996Z,99472.13
2019-05-02T02:04:46.454Z,99477.52
2019-05-02T02:09:49.907Z,99473.52
2019-05-02T02:14:55.454Z,99457.91
2019-05-02T02:20:00.184Z,99463.46
2019-05-02T02:25:09.247Z,99466.23
2019-05-02T02:30:17.828Z,99460.69
2019-05-02T02:35:18.315Z,99458.52
2019-05-02T02:40:32.914Z,99467.63
2019-05-02T02:45:51.971Z,99462.69
2019-05-02T02:50:51.694Z,99461.91
2019-05-02T02:56:01.154Z,99455.41
2019-05-02T03:01:00.495Z,99459.13
2019-05-02T03:06:05.686Z,99458.95
2019-05-02T03:11:11.004Z,99461.73
2019-05-02T03:16:16.139Z,99454.66
2019-05-02T03:21:22.309Z,99460.04
2019-05-02T03:26:24.847Z,99460.20
2019-05-02T03:31:30.875Z,99459.27
2019-05-02T03:36:43.898Z,99455.88
2019-05-02T03:41:47.412Z,99456.48
2019-05-02T03:46:54.486Z,99455.70
2019-05-02T03:52:02.632Z,99452.93
2019-05-02T03:57:01.421Z,99458.48
2019-05-02T04:02:04.936Z,99464.48
2019-05-02T04:12:18.869Z,99464.04
2019-05-02T04:17:17.786Z,99461.70
2019-05-02T04:27:27.838Z,99459.53
2019-05-02T04:32:30.828Z,99458.31
2019-05-02T04:37:40.505Z,99457.88
2019-05-02T04:47:57.523Z,99464.04
2019-05-02T04:52:53.604Z,99469.59
2019-05-02T04:57:53.306Z,99467.59
2019-05-02T05:02:58.061Z,99467.16
2019-05-02T05:08:01.598Z,99455.27
2019-05-02T05:13:05.052Z,99462.98
2019-05-02T05:18:10.481Z,99469.94
2019-05-02T05:23:18.422Z,99467.16
2019-05-02T05:28:20.515Z,99467.16
2019-05-02T05:33:23.968Z,99467.16
2019-05-02T05:38:28.631Z,99468.55
2019-05-02T05:43:32.606Z,99470.69
2019-05-02T05:48:39.203Z,99474.10
2019-05-02T05:53:41.241Z,99472.71
2019-05-02T05:58:50.554Z,99474.85
2019-05-02T06:03:49.872Z,99475.49
2019-05-02T06:08:54.131Z,99472.85
2019-05-02T06:13:58.514Z,99474.10
2019-05-02T06:19:01.974Z,99464.98
2019-05-02T06:24:05.429Z,99460.20
2019-05-02T06:29:13.059Z,99462.20
2019-05-02T06:34:14.137Z,99457.43
2019-05-02T06:39:17.596Z,99458.95
2019-05-02T06:44:24.059Z,99458.95
2019-05-02T06:49:26.227Z,99460.34
2019-05-02T06:54:29.692Z,99459.91
2019-05-02T06:59:33.151Z,99456.76
2019-05-02T07:04:36.613Z,99456.11
2019-05-02T07:09:41.551Z,99455.13
2019-05-02T07:14:45.873Z,99461.05
2019-05-02T07:19:51.002Z,99455.77
2019-05-02T07:24:54.465Z,99451.78
2019-05-02T07:29:59.652Z,99446.70
2019-05-02T07:35:03.639Z,99445.22
2019-05-02T07:40:12.166Z,99447.56
2019-05-02T07:45:14.855Z,99447.56
2019-05-02T07:50:18.491Z,99453.11
2019-05-02T07:55:21.956Z,99453.42
2019-05-02T08:00:25.486Z,99449.59
2019-05-02T08:05:28.954Z,99445.44
2019-05-02T08:10:32.418Z,99444.21
2019-05-02T08:15:35.884Z,99441.78
2019-05-02T08:20:39.346Z,99440.39
2019-05-02T08:25:45.372Z,99447.70
2019-05-02T08:30:52.569Z,99445.33
2019-05-02T08:35:56.103Z,99443.00
2019-05-02T08:40:59.566Z,99448.83
2019-05-02T08:46:03.031Z,99450.77
2019-05-02T08:51:06.496Z,99438.05
2019-05-02T08:56:09.960Z,99437.65
2019-05-02T09:01:15.345Z,99433.05
2019-05-02T09:06:22.354Z,99421.63
2019-05-02T09:11:23.819Z,99419.97
2019-05-02T09:16:29.131Z,99414.92
2019-05-02T09:21:36.003Z,99411.73
2019-05-02T09:26:38.795Z,99405.94
2019-05-02T09:31:46.092Z,99406.58
2019-05-02T09:36:47.617Z,99405.25
2019-05-02T09:41:52.735Z,99395.39
2019-05-02T09:46:57.169Z,99395.11
2019-05-02T09:52:01.403Z,99382.30
2019-05-02T09:57:05.866Z,99378.50
2019-05-02T10:02:09.404Z,99379.94
2019-05-02T10:07:15.298Z,99380.41
2019-05-02T10:12:18.072Z,99370.24
2019-05-02T10:17:23.109Z,99358.23
2019-05-02T10:22:33.732Z,99359.92
2019-05-02T10:27:32.297Z,99344.97
2019-05-02T10:32:35.743Z,99336.02
2019-05-02T10:37:40.380Z,99334.19
2019-05-02T10:42:43.848Z,99326.14
2019-05-02T10:47:47.308Z,99317.80
2019-05-02T10:52:52.633Z,99319.53
2019-05-02T10:57:55.955Z,99319.69
2019-05-02T11:03:17.356Z,99310.73
2019-05-02T11:08:22.447Z,99311.06
2019-05-02T11:13:27.695Z,99306.59
2019-05-02T11:18:42.034Z,99305.36
2019-05-02T11:23:38.079Z,99296.73
2019-05-02T11:28:41.649Z,99295.30
2019-05-02T11:33:45.066Z,99291.77
2019-05-02T11:38:55.627Z,99284.66
2019-05-02T11:43:55.749Z,99276.16
2019-05-02T11:48:58.917Z,99274.77
2019-05-02T11:54:05.199Z,99261.81
2019-05-02T11:59:07.559Z,99257.47
2019-05-02T12:04:12.975Z,99256.25
2019-05-02T12:09:17.374Z,99251.91
2019-05-02T12:14:22.860Z,99261.64
2019-05-02T12:19:26.022Z,99266.44
2019-05-02T12:24:29.480Z,99258.59
2019-05-02T12:29:33.497Z,99258.59
2019-05-02T12:34:37.185Z,99258.43
2019-05-02T12:39:42.558Z,99252.70
2019-05-02T12:44:45.821Z,99256.88
2019-05-02T12:49:49.277Z,99249.48
2019-05-02T12:54:52.743Z,99257.81
2019-05-02T12:59:56.261Z,99244.53
2019-05-02T13:04:59.722Z,99245.75
2019-05-02T13:10:03.849Z,99252.09
2019-05-02T13:15:08.045Z,99248.53
2019-05-02T13:20:13.582Z,99242.97
2019-05-02T13:25:18.856Z,99251.31
2019-05-02T13:30:26.529Z,99243.75
2019-05-02T13:35:33.750Z,99246.20
2019-05-02T13:40:41.794Z,99238.97
2019-05-02T13:45:55.966Z,99237.75
2019-05-02T13:50:59.576Z,99240.24
2019-05-02T13:56:23.867Z,99240.41
2019-05-02T14:01:27.497Z,99240.09
2019-05-02T14:06:35.720Z,99240.25
2019-05-02T14:11:41.633Z,99241.80
2019-05-02T14:16:45.876Z,99241.52
2019-05-02T14:21:49.333Z,99241.07
2019-05-02T14:26:52.784Z,99233.80
2019-05-02T14:31:56.236Z,99234.91
2019-05-02T14:37:01.926Z,99226.88
2019-05-02T14:42:05.241Z,99221.32
2019-05-02T14:47:10.019Z,99217.31
2019-05-02T14:52:14.016Z,99213.30
2019-05-02T14:57:25.484Z,99205.86
2019-05-02T15:02:32.758Z,99199.84
2019-05-02T15:07:38.432Z,99197.22
2019-05-02T15:12:41.963Z,99201.56
2019-05-02T15:17:45.529Z,99187.81
2019-05-02T15:22:48.975Z,99183.80
2019-05-02T15:27:58.185Z,99175.30
2019-05-02T15:33:02.961Z,99179.63
2019-05-02T15:38:07.011Z,99181.15
2019-05-02T15:43:12.466Z,99170.80
2019-05-02T15:48:22.569Z,99172.06
2019-05-02T15:53:28.635Z,99161.06
2019-05-02T15:58:32.472Z,99160.61
2019-05-02T16:03:46.182Z,99157.05
2019-05-02T16:08:48.821Z,99150.09
2019-05-02T16:13:55.855Z,99144.98
2019-05-02T16:18:57.830Z,99142.08
2019-05-02T16:24:22.573Z,99134.02
2019-05-02T16:29:28.407Z,99131.72
2019-05-02T16:34:32.441Z,99121.34
2019-05-02T16:39:36.113Z,99111.78
2019-05-02T16:44:39.573Z,99119.97
2019-05-02T16:49:43.468Z,99116.08
2019-05-02T16:54:46.924Z,99119.80
2019-05-02T16:59:53.877Z,99112.07
2019-05-02T17:05:00.264Z,99111.30
2019-05-02T17:10:02.956Z,99105.28
2019-05-02T17:15:26.393Z,99108.66
2019-05-02T17:20:29.556Z,99105.88
2019-05-02T17:25:33.012Z,99112.38
2019-05-02T17:30:38.875Z,99111.12
2019-05-02T17:35:49.297Z,99117.13
2019-05-02T17:40:46.996Z,99112.51
2019-05-02T17:45:50.453Z,99109.86
2019-05-02T17:51:04.165Z,99120.82
2019-05-02T17:56:13.126Z,99121.76
2019-05-02T18:01:14.695Z,99129.16
2019-05-02T18:06:30.105Z,99128.84
2019-05-02T18:11:23.399Z,99128.52
2019-05-02T18:16:27.123Z,99133.61
2019-05-02T18:21:32.259Z,99126.18
2019-05-02T18:26:35.913Z,99129.89
2019-05-02T18:31:44.967Z,99129.73
2019-05-02T18:36:44.556Z,99130.96
2019-05-02T18:41:48.013Z,99129.41
2019-05-02T18:46:51.875Z,99125.24
2019-05-02T18:51:57.392Z,99125.24
2019-05-02T18:57:02.402Z,99129.41
2019-05-02T19:02:06.266Z,99127.25
2019-05-02T19:07:12.759Z,99127.25
2019-05-02T19:12:22.485Z,99128.63
2019-05-02T19:17:21.932Z,99118.13
2019-05-02T19:22:25.469Z,99113.19
2019-05-02T19:27:46.534Z,99121.52
2019-05-02T19:32:50.145Z,99121.52
2019-05-02T19:37:55.073Z,99122.75
2019-05-02T19:43:03.367Z,99121.52
2019-05-02T19:48:03.900Z,99127.08
2019-05-02T19:53:14.953Z,99126.17
2019-05-02T19:58:13.073Z,99125.53
2019-05-02T20:03:21.876Z,99125.53
2019-05-02T20:08:24.513Z,99119.97
2019-05-02T20:13:29.597Z,99115.19
2019-05-02T20:18:34.989Z,99110.11
2019-05-02T20:23:37.320Z,99114.28
2019-05-02T20:28:42.257Z,99114.12
2019-05-02T20:33:45.877Z,99110.56
2019-05-02T20:38:49.333Z,99126.63
2019-05-02T20:43:52.788Z,99139.74
2019-05-02T20:48:56.248Z,99151.47
2019-05-02T20:54:01.839Z,99165.53
2019-05-02T20:59:05.259Z,99160.75
2019-05-02T21:04:08.713Z,99162.14
2019-05-02T21:09:30.078Z,99160.75
2019-05-02T21:14:33.531Z,99170.00
2019-05-02T21:19:39.124Z,99167.86
2019-05-02T21:24:42.575Z,99163.05
2019-05-02T21:29:46.027Z,99167.22
2019-05-02T21:34:49.480Z,99174.16
2019-05-02T21:39:53.221Z,99168.61
2019-05-02T21:44:56.676Z,99175.55
2019-05-02T21:50:07.488Z,99170.00
2019-05-02T21:55:18.681Z,99186.05
2019-05-02T22:00:26.831Z,99177.72
2019-05-02T22:05:31.686Z,99177.72
2019-05-02T22:10:35.219Z,99177.11
2019-05-02T22:15:38.676Z,99167.38
2019-05-02T22:20:42.804Z,99168.16
2019-05-02T22:25:46.364Z,99166.77
2019-05-02T22:30:49.821Z,99168.16
2019-05-02T22:35:53.275Z,99166.77
2019-05-02T22:40:58.378Z,99157.04
2019-05-02T22:46:03.477Z,99162.59
2019-05-02T22:51:06.936Z,99169.70
2019-05-02T22:56:11.759Z,99169.70
2019-05-02T23:01:15.571Z,99168.93
2019-05-02T23:06:19.030Z,99175.27
2019-05-02T23:11:24.506Z,99178.66
2019-05-02T23:16:27.805Z,99172.33
2019-05-02T23:21:32.565Z,99173.71
2019-05-02T23:26:37.827Z,99182.83
2019-05-02T23:31:42.261Z,99181.27
2019-05-02T23:36:45.921Z,99174.94
2019-05-02T23:41:49.398Z,99165.38
2019-05-02T23:46:52.833Z,99170.77
2019-05-02T23:51:56.294Z,99166.61
2019-05-02T23:56:59.748Z,99174.94
